Lady Nur — 3FFE2 — position and weather

sailwx.info

Track history (hours):
 
Tides and Currents Weather Stations Pressure Air Temp Water Temp Dewpoint Dewpoint Depression Visibility Wind Speed Wind Dir Waves Ship Positions

Lady Nur

Last reported at 2018-Feb-21 05:35 UTC. Time now 2018-Feb-22 05:11 UTC.
Position N 42°36' E 010°15'.

Length 82 m; draft 4.1 m.

Type: Cargo ship. MMSI: 373237000.

Date/timePositionNaut miles runAvg speedWind from/ knotsBaromVisibWave heightAir tempDewpointWater temp
2018-Feb-21 05:35N 42°36' E 010°15'1 7.8
2018-Feb-21 05:29N 42°37' E 010°15'33 7.4
2018-Feb-21 00:57N 43°08' E 009°57'3 7.7
2018-Feb-21 00:30N 43°11' E 009°55'4 7.7
2018-Feb-21 00:00N 43°14' E 009°53'4 7.9
2018-Feb-20 23:30N 43°18' E 009°50'4 7.8
2018-Feb-20 23:00N 43°21' E 009°47'4 7.8
2018-Feb-20 22:30N 43°24' E 009°45'4 7.8
2018-Feb-20 22:00N 43°28' E 009°42'4 7.5
2018-Feb-20 21:30N 43°31' E 009°39'4 7.6
2018-Feb-20 21:00N 43°34' E 009°36'4 7.6
2018-Feb-20 20:30N 43°37' E 009°33'4 7.7
2018-Feb-20 20:00N 43°41' E 009°31'4 8.0
2018-Feb-20 19:30N 43°44' E 009°28'4 8.1
2018-Feb-20 19:00N 43°48' E 009°25'4 8.1
2018-Feb-20 18:30N 43°51' E 009°22'4 7.7
2018-Feb-20 18:00N 43°54' E 009°19'4 7.8
2018-Feb-20 17:30N 43°57' E 009°16'4 7.7
2018-Feb-20 17:00N 44°00' E 009°13'4 8.0
2018-Feb-20 16:30N 44°04' E 009°10'4 8.0
2018-Feb-20 16:00N 44°07' E 009°07'4 7.8
2018-Feb-20 15:30N 44°11' E 009°04'4 8.0
2018-Feb-20 15:00N 44°14' E 009°01'4 8.1
2018-Feb-20 14:30N 44°17' E 008°58'4 8.1
2018-Feb-20 14:00N 44°21' E 008°55'4 7.5
2018-Feb-20 13:30N 44°24' E 008°53'0 0.8
2018-Feb-20 13:00N 44°24' E 008°52'0 0.0
2018-Feb-20 12:22N 44°24' E 008°52'0 0.0
2018-Feb-20 11:49N 44°24' E 008°52'0 0.0
2018-Feb-20 11:28N 44°24' E 008°52'0 0.0
2018-Feb-20 10:55N 44°24' E 008°52'0 0.0
2018-Feb-20 10:25N 44°24' E 008°52'0 0.0
2018-Feb-20 09:58N 44°24' E 008°52'0 0.0
2018-Feb-20 09:25N 44°24' E 008°52'0 0.0
2018-Feb-20 08:55N 44°24' E 008°52'0 0.0
2018-Feb-20 08:25N 44°24' E 008°52'0 0.0
2018-Feb-20 07:55N 44°24' E 008°52'0 0.0
2018-Feb-20 07:25N 44°24' E 008°52'0 0.0
2018-Feb-20 06:55N 44°24' E 008°52'0 0.0
2018-Feb-20 06:28N 44°24' E 008°52'0 0.0
2018-Feb-20 05:58N 44°24' E 008°52'0 0.0
2018-Feb-20 05:28N 44°24' E 008°52'0 0.0
2018-Feb-20 04:58N 44°24' E 008°52'0 0.0
2018-Feb-20 04:28N 44°24' E 008°52'0 0.0
2018-Feb-20 03:58N 44°24' E 008°52'0 0.0
2018-Feb-20 03:28N 44°24' E 008°52'0 0.0
2018-Feb-20 03:01N 44°24' E 008°52'0 0.0
2018-Feb-20 02:31N 44°24' E 008°52'0 0.0
2018-Feb-20 01:57N 44°24' E 008°52'0 0.0
2018-Feb-20 01:30N 44°24' E 008°52'0 0.0
2018-Feb-20 01:00N 44°24' E 008°52'0 0.0
2018-Feb-20 00:30N 44°24' E 008°52'0 0.0
2018-Feb-20 00:00N 44°24' E 008°52'0 0.0
2018-Feb-19 23:30N 44°24' E 008°52'0 0.0
2018-Feb-19 23:00N 44°24' E 008°52'0 0.0
2018-Feb-19 22:30N 44°24' E 008°52'0 0.0
2018-Feb-19 22:00N 44°24' E 008°52'0 0.0
2018-Feb-19 21:18N 44°24' E 008°52'0 0.0
2018-Feb-19 21:00N 44°24' E 008°52'0 0.0
2018-Feb-19 20:30N 44°24' E 008°52'0 0.0
2018-Feb-19 20:00N 44°24' E 008°52'0 0.0
2018-Feb-19 19:30N 44°24' E 008°52'0 0.0
2018-Feb-19 18:57N 44°24' E 008°52'0 0.0
2018-Feb-19 18:30N 44°24' E 008°52'0 0.0
2018-Feb-19 18:00N 44°24' E 008°52'0 0.0
2018-Feb-19 17:30N 44°24' E 008°52'0 0.0
2018-Feb-19 17:00N 44°24' E 008°52'0 0.0
2018-Feb-19 16:30N 44°24' E 008°52'0 0.0
2018-Feb-19 16:00N 44°24' E 008°52'0 0.0
2018-Feb-19 15:30N 44°24' E 008°52'0 0.0
2018-Feb-19 15:00N 44°24' E 008°52'0 0.0
2018-Feb-19 14:30N 44°24' E 008°52'0 0.0
2018-Feb-19 14:00N 44°24' E 008°52'0 0.0
2018-Feb-19 13:27N 44°24' E 008°52'0 0.0
2018-Feb-19 12:51N 44°24' E 008°52'0 0.0
2018-Feb-19 12:30N 44°25' E 008°52'0 0.0
2018-Feb-19 12:00N 44°24' E 008°52'0 0.0
2018-Feb-19 11:30N 44°24' E 008°52'0 0.0
2018-Feb-19 10:57N 44°24' E 008°52'0 0.0
2018-Feb-19 10:30N 44°24' E 008°52'0 0.0
2018-Feb-19 10:00N 44°24' E 008°52'0 0.0
2018-Feb-19 09:27N 44°24' E 008°52'0 0.0
2018-Feb-19 09:00N 44°24' E 008°52'0 0.0
2018-Feb-19 08:24N 44°24' E 008°52'0 0.0
2018-Feb-19 08:00N 44°24' E 008°52'0 0.0
2018-Feb-19 07:24N 44°24' E 008°52'0 0.0
2018-Feb-19 06:54N 44°24' E 008°52'0 0.0
2018-Feb-19 06:30N 44°24' E 008°52'0 0.0
2018-Feb-19 05:57N 44°24' E 008°52'0 0.0
2018-Feb-19 05:30N 44°24' E 008°52'0 0.0
2018-Feb-19 04:57N 44°24' E 008°52'0 0.0
2018-Feb-19 04:30N 44°24' E 008°52'0 0.0
2018-Feb-19 03:57N 44°24' E 008°52'0 0.0
2018-Feb-19 03:27N 44°24' E 008°52'0 0.0
2018-Feb-19 03:00N 44°24' E 008°52'0 0.0
2018-Feb-19 02:27N 44°24' E 008°52'0 0.0
2018-Feb-19 02:00N 44°24' E 008°52'0 0.0
2018-Feb-19 01:27N 44°24' E 008°52'0 0.0
2018-Feb-19 01:00N 44°24' E 008°52'0 0.0
2018-Feb-19 00:30N 44°24' E 008°52'0 0.0
2018-Feb-19 00:00N 44°24' E 008°52'0 0.0
2018-Feb-18 23:30N 44°24' E 008°52'0 0.0
2018-Feb-18 23:00N 44°24' E 008°52'0 0.0
2018-Feb-18 22:30N 44°24' E 008°52'0 0.0
2018-Feb-18 22:00N 44°24' E 008°52'0 0.0
2018-Feb-18 21:30N 44°24' E 008°52'0 0.0
2018-Feb-18 21:00N 44°24' E 008°52'0 0.0
2018-Feb-18 20:30N 44°24' E 008°52'0 0.0
2018-Feb-18 20:00N 44°24' E 008°52'0 0.0
2018-Feb-18 19:30N 44°24' E 008°52'0 0.0
2018-Feb-18 19:00N 44°24' E 008°52'0 0.0
2018-Feb-18 18:30N 44°24' E 008°52'0 0.0
2018-Feb-18 18:00N 44°24' E 008°52'0 0.0
2018-Feb-18 17:30N 44°24' E 008°52'0 0.0
2018-Feb-18 17:00N 44°24' E 008°52'0 0.0
2018-Feb-18 16:30N 44°24' E 008°52'0 0.0
2018-Feb-18 16:00N 44°24' E 008°52'0 0.0
2018-Feb-18 15:30N 44°24' E 008°52'0 0.0
2018-Feb-18 15:00N 44°24' E 008°52'0 0.0
2018-Feb-18 14:30N 44°24' E 008°52'0 0.0
2018-Feb-18 14:00N 44°24' E 008°52'0 0.0
2018-Feb-18 13:30N 44°24' E 008°52'0 0.0
2018-Feb-18 12:59N 44°24' E 008°52'0 0.0
2018-Feb-18 12:29N 44°24' E 008°52'0 0.0
2018-Feb-18 11:56N 44°24' E 008°52'0 0.0
2018-Feb-18 11:29N 44°24' E 008°52'0 0.0
2018-Feb-18 10:59N 44°24' E 008°52'0 0.0
2018-Feb-18 10:29N 44°24' E 008°52'0 0.0
2018-Feb-18 09:59N 44°24' E 008°52'0 0.0
2018-Feb-18 09:26N 44°24' E 008°52'0 0.0
2018-Feb-18 08:59N 44°24' E 008°52'0 0.0
2018-Feb-18 08:26N 44°24' E 008°52'0 0.0
2018-Feb-18 07:59N 44°24' E 008°52'0 0.0
2018-Feb-18 07:26N 44°24' E 008°52'0 0.0
2018-Feb-18 06:56N 44°24' E 008°52'0 0.0
2018-Feb-18 06:29N 44°24' E 008°52'0 0.0
2018-Feb-18 05:56N 44°24' E 008°52'0 0.0
2018-Feb-18 05:29N 44°24' E 008°52'0 0.0
2018-Feb-18 04:56N 44°24' E 008°52'0 0.0
2018-Feb-18 04:29N 44°24' E 008°52'0 0.0
2018-Feb-18 03:59N 44°24' E 008°52'0 0.0
2018-Feb-18 03:26N 44°24' E 008°52'0 0.0
2018-Feb-18 02:59N 44°24' E 008°52'0 0.0
2018-Feb-18 02:26N 44°24' E 008°52'0 0.0
2018-Feb-18 01:59N 44°24' E 008°52'0 0.0
2018-Feb-18 01:26N 44°24' E 008°52'0 0.0
2018-Feb-18 00:59N 44°24' E 008°52'0 0.0
2018-Feb-18 00:29N 44°24' E 008°52'0 0.0
2018-Feb-17 23:59N 44°24' E 008°52'0 0.0
2018-Feb-17 23:29N 44°24' E 008°52'0 0.0
2018-Feb-17 22:59N 44°24' E 008°52'0 0.0
2018-Feb-17 22:29N 44°24' E 008°52'0 0.0
2018-Feb-17 21:59N 44°24' E 008°52'0 0.0
2018-Feb-17 21:29N 44°24' E 008°52'0 0.0
2018-Feb-17 20:59N 44°24' E 008°52'0 0.0
2018-Feb-17 20:29N 44°24' E 008°52'0 0.0
2018-Feb-17 19:59N 44°24' E 008°52'0 0.0
2018-Feb-17 19:29N 44°24' E 008°52'0 0.0
2018-Feb-17 18:59N 44°24' E 008°52'0 0.0
2018-Feb-17 18:29N 44°24' E 008°52'0 0.0
2018-Feb-17 17:59N 44°24' E 008°52'0 0.0
2018-Feb-17 17:29N 44°24' E 008°52'0 0.0
2018-Feb-17 16:59N 44°24' E 008°52'0 0.0
2018-Feb-17 16:29N 44°24' E 008°52'0 0.0
2018-Feb-17 15:59N 44°24' E 008°52'0 0.9
2018-Feb-17 15:31N 44°24' E 008°53'4 7.4
2018-Feb-17 15:00N 44°22' E 008°57'3 6.7
2018-Feb-17 14:30N 44°19' E 008°59'4 8.7
2018-Feb-17 14:00N 44°15' E 009°01'4 8.1
2018-Feb-17 13:30N 44°11' E 009°03'4 7.8
2018-Feb-17 13:00N 44°08' E 009°05'4 8.0
2018-Feb-17 12:30N 44°04' E 009°08'4 8.2
2018-Feb-17 12:00N 44°01' E 009°10'4 8.5
2018-Feb-17 11:30N 43°57' E 009°13'4 8.3
2018-Feb-17 11:00N 43°54' E 009°17'3 5.8
2018-Feb-17 10:30N 43°51' E 009°19'4 8.1
2018-Feb-17 10:00N 43°48' E 009°23'4 7.8
2018-Feb-17 09:30N 43°45' E 009°26'4 7.3
2018-Feb-17 09:00N 43°42' E 009°28'4 7.3
2018-Feb-17 08:30N 43°39' E 009°31'4 7.3
2018-Feb-17 08:00N 43°36' E 009°34'4 7.6
2018-Feb-17 07:30N 43°32' E 009°36'4 7.8
2018-Feb-17 07:00N 43°29' E 009°39'4 7.7
2018-Feb-17 06:30N 43°26' E 009°41'4 8.3
2018-Feb-17 06:00N 43°22' E 009°44'4 8.4
2018-Feb-17 05:30N 43°18' E 009°47'4 8.4
2018-Feb-17 05:00N 43°15' E 009°50'  
Track history (hours):
 
Tides and Currents Weather Stations Pressure Air Temp Water Temp Dewpoint Dewpoint Depression Visibility Wind Speed Wind Dir Waves Ship Positions

Lady Nur

Last reported at 2018-Feb-21 05:35 UTC. Time now 2018-Feb-22 05:11 UTC.
Position N 42°36' E 010°15'.

Length 82 m; draft 4.1 m.

Type: Cargo ship. MMSI: 373237000.

Date/timePositionNaut miles runAvg speedWind from/ knotsBaromVisibWave heightAir tempDewpointWater temp
2018-Feb-21 05:35N 42°36' E 010°15'1 7.8
2018-Feb-21 05:29N 42°37' E 010°15'33 7.4
2018-Feb-21 00:57N 43°08' E 009°57'3 7.7
2018-Feb-21 00:30N 43°11' E 009°55'4 7.7
2018-Feb-21 00:00N 43°14' E 009°53'4 7.9
2018-Feb-20 23:30N 43°18' E 009°50'4 7.8
2018-Feb-20 23:00N 43°21' E 009°47'4 7.8
2018-Feb-20 22:30N 43°24' E 009°45'4 7.8
2018-Feb-20 22:00N 43°28' E 009°42'4 7.5
2018-Feb-20 21:30N 43°31' E 009°39'4 7.6
2018-Feb-20 21:00N 43°34' E 009°36'4 7.6
2018-Feb-20 20:30N 43°37' E 009°33'4 7.7
2018-Feb-20 20:00N 43°41' E 009°31'4 8.0
2018-Feb-20 19:30N 43°44' E 009°28'4 8.1
2018-Feb-20 19:00N 43°48' E 009°25'4 8.1
2018-Feb-20 18:30N 43°51' E 009°22'4 7.7
2018-Feb-20 18:00N 43°54' E 009°19'4 7.8
2018-Feb-20 17:30N 43°57' E 009°16'4 7.7
2018-Feb-20 17:00N 44°00' E 009°13'4 8.0
2018-Feb-20 16:30N 44°04' E 009°10'4 8.0
2018-Feb-20 16:00N 44°07' E 009°07'4 7.8
2018-Feb-20 15:30N 44°11' E 009°04'4 8.0
2018-Feb-20 15:00N 44°14' E 009°01'4 8.1
2018-Feb-20 14:30N 44°17' E 008°58'4 8.1
2018-Feb-20 14:00N 44°21' E 008°55'4 7.5
2018-Feb-20 13:30N 44°24' E 008°53'0 0.8
2018-Feb-20 13:00N 44°24' E 008°52'0 0.0
2018-Feb-20 12:22N 44°24' E 008°52'0 0.0
2018-Feb-20 11:49N 44°24' E 008°52'0 0.0
2018-Feb-20 11:28N 44°24' E 008°52'0 0.0
2018-Feb-20 10:55N 44°24' E 008°52'0 0.0
2018-Feb-20 10:25N 44°24' E 008°52'0 0.0
2018-Feb-20 09:58N 44°24' E 008°52'0 0.0
2018-Feb-20 09:25N 44°24' E 008°52'0 0.0
2018-Feb-20 08:55N 44°24' E 008°52'0 0.0
2018-Feb-20 08:25N 44°24' E 008°52'0 0.0
2018-Feb-20 07:55N 44°24' E 008°52'0 0.0
2018-Feb-20 07:25N 44°24' E 008°52'0 0.0
2018-Feb-20 06:55N 44°24' E 008°52'0 0.0
2018-Feb-20 06:28N 44°24' E 008°52'0 0.0
2018-Feb-20 05:58N 44°24' E 008°52'0 0.0
2018-Feb-20 05:28N 44°24' E 008°52'0 0.0
2018-Feb-20 04:58N 44°24' E 008°52'0 0.0
2018-Feb-20 04:28N 44°24' E 008°52'0 0.0
2018-Feb-20 03:58N 44°24' E 008°52'0 0.0
2018-Feb-20 03:28N 44°24' E 008°52'0 0.0
2018-Feb-20 03:01N 44°24' E 008°52'0 0.0
2018-Feb-20 02:31N 44°24' E 008°52'0 0.0
2018-Feb-20 01:57N 44°24' E 008°52'0 0.0
2018-Feb-20 01:30N 44°24' E 008°52'0 0.0
2018-Feb-20 01:00N 44°24' E 008°52'0 0.0
2018-Feb-20 00:30N 44°24' E 008°52'0 0.0
2018-Feb-20 00:00N 44°24' E 008°52'0 0.0
2018-Feb-19 23:30N 44°24' E 008°52'0 0.0
2018-Feb-19 23:00N 44°24' E 008°52'0 0.0
2018-Feb-19 22:30N 44°24' E 008°52'0 0.0
2018-Feb-19 22:00N 44°24' E 008°52'0 0.0
2018-Feb-19 21:18N 44°24' E 008°52'0 0.0
2018-Feb-19 21:00N 44°24' E 008°52'0 0.0
2018-Feb-19 20:30N 44°24' E 008°52'0 0.0
2018-Feb-19 20:00N 44°24' E 008°52'0 0.0
2018-Feb-19 19:30N 44°24' E 008°52'0 0.0
2018-Feb-19 18:57N 44°24' E 008°52'0 0.0
2018-Feb-19 18:30N 44°24' E 008°52'0 0.0
2018-Feb-19 18:00N 44°24' E 008°52'0 0.0
2018-Feb-19 17:30N 44°24' E 008°52'0 0.0
2018-Feb-19 17:00N 44°24' E 008°52'0 0.0
2018-Feb-19 16:30N 44°24' E 008°52'0 0.0
2018-Feb-19 16:00N 44°24' E 008°52'0 0.0
2018-Feb-19 15:30N 44°24' E 008°52'0 0.0
2018-Feb-19 15:00N 44°24' E 008°52'0 0.0
2018-Feb-19 14:30N 44°24' E 008°52'0 0.0
2018-Feb-19 14:00N 44°24' E 008°52'0 0.0
2018-Feb-19 13:27N 44°24' E 008°52'0 0.0
2018-Feb-19 12:51N 44°24' E 008°52'0 0.0
2018-Feb-19 12:30N 44°25' E 008°52'0 0.0
2018-Feb-19 12:00N 44°24' E 008°52'0 0.0
2018-Feb-19 11:30N 44°24' E 008°52'0 0.0
2018-Feb-19 10:57N 44°24' E 008°52'0 0.0
2018-Feb-19 10:30N 44°24' E 008°52'0 0.0
2018-Feb-19 10:00N 44°24' E 008°52'0 0.0
2018-Feb-19 09:27N 44°24' E 008°52'0 0.0
2018-Feb-19 09:00N 44°24' E 008°52'0 0.0
2018-Feb-19 08:24N 44°24' E 008°52'0 0.0
2018-Feb-19 08:00N 44°24' E 008°52'0 0.0
2018-Feb-19 07:24N 44°24' E 008°52'0 0.0
2018-Feb-19 06:54N 44°24' E 008°52'0 0.0
2018-Feb-19 06:30N 44°24' E 008°52'0 0.0
2018-Feb-19 05:57N 44°24' E 008°52'0 0.0
2018-Feb-19 05:30N 44°24' E 008°52'0 0.0
2018-Feb-19 04:57N 44°24' E 008°52'0 0.0
2018-Feb-19 04:30N 44°24' E 008°52'0 0.0
2018-Feb-19 03:57N 44°24' E 008°52'0 0.0
2018-Feb-19 03:27N 44°24' E 008°52'0 0.0
2018-Feb-19 03:00N 44°24' E 008°52'0 0.0
2018-Feb-19 02:27N 44°24' E 008°52'0 0.0
2018-Feb-19 02:00N 44°24' E 008°52'0 0.0
2018-Feb-19 01:27N 44°24' E 008°52'0 0.0
2018-Feb-19 01:00N 44°24' E 008°52'0 0.0
2018-Feb-19 00:30N 44°24' E 008°52'0 0.0
2018-Feb-19 00:00N 44°24' E 008°52'0 0.0
2018-Feb-18 23:30N 44°24' E 008°52'0 0.0
2018-Feb-18 23:00N 44°24' E 008°52'0 0.0
2018-Feb-18 22:30N 44°24' E 008°52'0 0.0
2018-Feb-18 22:00N 44°24' E 008°52'0 0.0
2018-Feb-18 21:30N 44°24' E 008°52'0 0.0
2018-Feb-18 21:00N 44°24' E 008°52'0 0.0
2018-Feb-18 20:30N 44°24' E 008°52'0 0.0
2018-Feb-18 20:00N 44°24' E 008°52'0 0.0
2018-Feb-18 19:30N 44°24' E 008°52'0 0.0
2018-Feb-18 19:00N 44°24' E 008°52'0 0.0
2018-Feb-18 18:30N 44°24' E 008°52'0 0.0
2018-Feb-18 18:00N 44°24' E 008°52'0 0.0
2018-Feb-18 17:30N 44°24' E 008°52'0 0.0
2018-Feb-18 17:00N 44°24' E 008°52'0 0.0
2018-Feb-18 16:30N 44°24' E 008°52'0 0.0
2018-Feb-18 16:00N 44°24' E 008°52'0 0.0
2018-Feb-18 15:30N 44°24' E 008°52'0 0.0
2018-Feb-18 15:00N 44°24' E 008°52'0 0.0
2018-Feb-18 14:30N 44°24' E 008°52'0 0.0
2018-Feb-18 14:00N 44°24' E 008°52'0 0.0
2018-Feb-18 13:30N 44°24' E 008°52'0 0.0
2018-Feb-18 12:59N 44°24' E 008°52'0 0.0
2018-Feb-18 12:29N 44°24' E 008°52'0 0.0
2018-Feb-18 11:56N 44°24' E 008°52'0 0.0
2018-Feb-18 11:29N 44°24' E 008°52'0 0.0
2018-Feb-18 10:59N 44°24' E 008°52'0 0.0
2018-Feb-18 10:29N 44°24' E 008°52'0 0.0
2018-Feb-18 09:59N 44°24' E 008°52'0 0.0
2018-Feb-18 09:26N 44°24' E 008°52'0 0.0
2018-Feb-18 08:59N 44°24' E 008°52'0 0.0
2018-Feb-18 08:26N 44°24' E 008°52'0 0.0
2018-Feb-18 07:59N 44°24' E 008°52'0 0.0
2018-Feb-18 07:26N 44°24' E 008°52'0 0.0
2018-Feb-18 06:56N 44°24' E 008°52'0 0.0
2018-Feb-18 06:29N 44°24' E 008°52'0 0.0
2018-Feb-18 05:56N 44°24' E 008°52'0 0.0
2018-Feb-18 05:29N 44°24' E 008°52'0 0.0
2018-Feb-18 04:56N 44°24' E 008°52'0 0.0
2018-Feb-18 04:29N 44°24' E 008°52'0 0.0
2018-Feb-18 03:59N 44°24' E 008°52'0 0.0
2018-Feb-18 03:26N 44°24' E 008°52'0 0.0
2018-Feb-18 02:59N 44°24' E 008°52'0 0.0
2018-Feb-18 02:26N 44°24' E 008°52'0 0.0
2018-Feb-18 01:59N 44°24' E 008°52'0 0.0
2018-Feb-18 01:26N 44°24' E 008°52'0 0.0
2018-Feb-18 00:59N 44°24' E 008°52'0 0.0
2018-Feb-18 00:29N 44°24' E 008°52'0 0.0
2018-Feb-17 23:59N 44°24' E 008°52'0 0.0
2018-Feb-17 23:29N 44°24' E 008°52'0 0.0
2018-Feb-17 22:59N 44°24' E 008°52'0 0.0
2018-Feb-17 22:29N 44°24' E 008°52'0 0.0
2018-Feb-17 21:59N 44°24' E 008°52'0 0.0
2018-Feb-17 21:29N 44°24' E 008°52'0 0.0
2018-Feb-17 20:59N 44°24' E 008°52'0 0.0
2018-Feb-17 20:29N 44°24' E 008°52'0 0.0
2018-Feb-17 19:59N 44°24' E 008°52'0 0.0
2018-Feb-17 19:29N 44°24' E 008°52'0 0.0
2018-Feb-17 18:59N 44°24' E 008°52'0 0.0
2018-Feb-17 18:29N 44°24' E 008°52'0 0.0
2018-Feb-17 17:59N 44°24' E 008°52'0 0.0
2018-Feb-17 17:29N 44°24' E 008°52'0 0.0
2018-Feb-17 16:59N 44°24' E 008°52'0 0.0
2018-Feb-17 16:29N 44°24' E 008°52'0 0.0
2018-Feb-17 15:59N 44°24' E 008°52'0 0.9
2018-Feb-17 15:31N 44°24' E 008°53'4 7.4
2018-Feb-17 15:00N 44°22' E 008°57'3 6.7
2018-Feb-17 14:30N 44°19' E 008°59'4 8.7
2018-Feb-17 14:00N 44°15' E 009°01'4 8.1
2018-Feb-17 13:30N 44°11' E 009°03'4 7.8
2018-Feb-17 13:00N 44°08' E 009°05'4 8.0
2018-Feb-17 12:30N 44°04' E 009°08'4 8.2
2018-Feb-17 12:00N 44°01' E 009°10'4 8.5
2018-Feb-17 11:30N 43°57' E 009°13'4 8.3
2018-Feb-17 11:00N 43°54' E 009°17'3 5.8
2018-Feb-17 10:30N 43°51' E 009°19'4 8.1
2018-Feb-17 10:00N 43°48' E 009°23'4 7.8
2018-Feb-17 09:30N 43°45' E 009°26'4 7.3
2018-Feb-17 09:00N 43°42' E 009°28'4 7.3
2018-Feb-17 08:30N 43°39' E 009°31'4 7.3
2018-Feb-17 08:00N 43°36' E 009°34'4 7.6
2018-Feb-17 07:30N 43°32' E 009°36'4 7.8
2018-Feb-17 07:00N 43°29' E 009°39'4 7.7
2018-Feb-17 06:30N 43°26' E 009°41'4 8.3
2018-Feb-17 06:00N 43°22' E 009°44'4 8.4
2018-Feb-17 05:30N 43°18' E 009°47'4 8.4
2018-Feb-17 05:00N 43°15' E 009°50'  

Dump ship's entire track history